Time;durP1;ratioP1;P1;durP2;ratioP2;P2;SDS_P1;SDS_P2;PMS_P1;PMS_P2;Temp;Humidity;BMP_temperature;BMP_pressure;BME280_temperature;BME280_humidity;BME280_pressure;Samples;Min_cycle;Max_cycle;Signal;HPM_P1;HPM_P2
2023/09/19 03:00:42;;;;;;;0.50;0.40;;;22.90;58.50;;;;;;5862804;22;46333;-83
2023/09/19 03:03:08;;;;;;;1.73;0.40;;;22.90;58.50;;;;;;4959495;28;47819;-84
2023/09/19 03:05:34;;;;;;;0.32;0.28;;;22.90;58.50;;;;;;4976661;28;45990;-84
2023/09/19 03:08:00;;;;;;;2.50;0.40;;;22.90;58.40;;;;;;5014365;28;45420;-83
2023/09/19 03:10:27;;;;;;;0.75;0.40;;;22.90;58.50;;;;;;4958576;28;45867;-83
2023/09/19 03:12:53;;;;;;;0.57;0.45;;;22.90;58.50;;;;;;4928147;28;46536;-83
2023/09/19 03:15:19;;;;;;;0.85;0.40;;;22.90;58.50;;;;;;4935096;28;45187;-82
2023/09/19 03:17:45;;;;;;;0.30;0.30;;;22.90;58.50;;;;;;4961058;28;44960;-82
2023/09/19 03:20:13;;;;;;;0.52;0.40;;;22.90;58.50;;;;;;4947270;28;45102;-82
2023/09/19 03:22:40;;;;;;;2.75;0.30;;;22.90;58.50;;;;;;4977724;28;45941;-83
2023/09/19 03:25:07;;;;;;;0.30;0.30;;;22.90;58.40;;;;;;4948081;28;45173;-83
2023/09/19 03:27:35;;;;;;;0.50;0.40;;;22.90;58.40;;;;;;4963121;28;45455;-83
2023/09/19 03:30:05;;;;;;;0.52;0.35;;;22.90;58.40;;;;;;4969817;28;45434;-82
2023/09/19 03:32:34;;;;;;;0.93;0.50;;;22.90;58.50;;;;;;4971269;28;47252;-83
2023/09/19 03:35:01;;;;;;;0.82;0.38;;;22.90;58.40;;;;;;4978586;28;44943;-83
2023/09/19 03:37:27;;;;;;;0.63;0.40;;;22.90;58.40;;;;;;4961461;28;45505;-83
2023/09/19 03:39:54;;;;;;;0.32;0.20;;;22.90;58.40;;;;;;4959572;28;45002;-83
2023/09/19 03:42:25;;;;;;;0.75;0.45;;;22.90;58.40;;;;;;4976606;28;47287;-83
2023/09/19 03:44:52;;;;;;;0.70;0.40;;;22.90;59.00;;;;;;4981347;28;45455;-84
2023/09/19 03:47:21;;;;;;;0.40;0.40;;;22.90;58.40;;;;;;4937048;28;45429;-83
2023/09/19 03:49:47;;;;;;;0.22;0.22;;;22.90;58.40;;;;;;4978635;28;44982;-83
2023/09/19 03:52:13;;;;;;;0.30;0.30;;;22.90;58.40;;;;;;4953994;28;46006;-83
2023/09/19 03:54:41;;;;;;;0.70;0.30;;;22.90;58.40;;;;;;4961884;28;45230;-84
2023/09/19 03:57:06;;;;;;;0.77;0.40;;;22.90;58.40;;;;;;4918156;28;45044;-83
2023/09/19 03:59:33;;;;;;;0.45;0.45;;;22.90;58.40;;;;;;4931109;28;46146;-82
2023/09/19 04:01:59;;;;;;;0.22;0.20;;;22.90;59.00;;;;;;4966274;28;45839;-83
2023/09/19 04:04:25;;;;;;;0.82;0.40;;;22.90;58.40;;;;;;4959148;28;45275;-83
2023/09/19 04:06:52;;;;;;;0.35;0.30;;;22.90;58.40;;;;;;4959247;28;45318;-83
2023/09/19 04:09:18;;;;;;;0.40;0.40;;;23.00;58.40;;;;;;4949353;28;45383;-83
2023/09/19 04:11:44;;;;;;;0.30;0.30;;;22.90;58.40;;;;;;4972580;28;45400;-82
2023/09/19 04:14:09;;;;;;;0.73;0.32;;;22.90;58.40;;;;;;4944741;28;45012;-83
2023/09/19 04:16:35;;;;;;;0.95;0.40;;;22.90;58.40;;;;;;4956037;28;45306;-83
2023/09/19 04:19:01;;;;;;;0.60;0.50;;;22.90;58.30;;;;;;4962072;28;45492;-82
2023/09/19 04:21:29;;;;;;;0.90;0.40;;;22.90;58.40;;;;;;4953637;28;45811;-83
2023/09/19 04:23:55;;;;;;;0.82;0.40;;;22.90;58.40;;;;;;4961690;28;44915;-81
2023/09/19 04:26:21;;;;;;;1.33;0.38;;;22.90;58.40;;;;;;4967537;28;44905;-83
2023/09/19 04:28:47;;;;;;;2.80;0.40;;;22.90;58.30;;;;;;4939472;28;45315;-82
2023/09/19 04:31:14;;;;;;;0.82;0.40;;;22.90;58.40;;;;;;4968829;28;46435;-82
2023/09/19 04:33:40;;;;;;;0.75;0.45;;;22.90;58.40;;;;;;4945221;28;45615;-82
2023/09/19 04:36:07;;;;;;;0.65;0.40;;;22.90;58.30;;;;;;4952774;28;45535;-83
2023/09/19 04:38:33;;;;;;;0.47;0.40;;;22.90;58.30;;;;;;4948410;28;45691;-83
2023/09/19 04:40:59;;;;;;;1.05;0.40;;;22.90;58.30;;;;;;4961945;28;46165;-83
2023/09/19 04:43:25;;;;;;;0.70;0.50;;;22.90;58.30;;;;;;4964306;28;45890;-83
2023/09/19 04:45:55;;;;;;;0.52;0.30;;;22.90;58.30;;;;;;4916265;28;45607;-83
2023/09/19 04:48:23;;;;;;;0.63;0.40;;;22.90;58.30;;;;;;4957583;28;45635;-83
2023/09/19 04:50:49;;;;;;;0.68;0.30;;;22.90;58.30;;;;;;4970357;28;46538;-83
2023/09/19 04:53:15;;;;;;;1.13;0.50;;;22.80;58.30;;;;;;4931313;28;45126;-83
2023/09/19 04:55:41;;;;;;;0.28;0.28;;;22.80;58.30;;;;;;4940971;28;45307;-83
2023/09/19 04:58:07;;;;;;;0.50;0.40;;;22.90;58.30;;;;;;4976664;28;45386;-83
2023/09/19 05:00:35;;;;;;;0.55;0.40;;;22.90;58.30;;;;;;4970368;28;45500;-83
2023/09/19 05:03:01;;;;;;;0.30;0.30;;;22.90;58.30;;;;;;4936419;28;45129;-83
2023/09/19 05:05:28;;;;;;;0.98;0.47;;;22.90;58.30;;;;;;4938082;28;45657;-82
2023/09/19 05:07:54;;;;;;;0.55;0.40;;;22.90;58.30;;;;;;4981447;28;45468;-83
2023/09/19 05:10:20;;;;;;;0.32;0.32;;;22.80;58.30;;;;;;4976646;28;46018;-83
2023/09/19 05:12:48;;;;;;;0.55;0.40;;;22.80;58.30;;;;;;4953500;28;45291;-83
2023/09/19 05:15:19;;;;;;;0.70;0.40;;;22.80;58.30;;;;;;4957449;28;45221;-83
2023/09/19 05:17:51;;;;;;;0.82;0.40;;;22.80;58.30;;;;;;4958291;28;44938;-83
2023/09/19 05:20:37;;;;;;;0.80;0.35;;;22.80;58.20;;;;;;4947856;28;46166;-82
2023/09/19 05:23:16;;;;;;;1.75;0.43;;;22.80;58.30;;;;;;4957593;28;45438;-83
2023/09/19 05:25:43;;;;;;;0.70;0.50;;;22.80;58.30;;;;;;4979423;28;45814;-83
2023/09/19 05:28:11;;;;;;;0.47;0.32;;;22.80;58.30;;;;;;4966500;28;45362;-82
2023/09/19 05:30:38;;;;;;;1.00;0.32;;;22.80;58.30;;;;;;4956467;28;45776;-83
2023/09/19 05:33:04;;;;;;;1.05;0.40;;;22.80;58.30;;;;;;4970377;28;45253;-83
2023/09/19 05:35:30;;;;;;;0.60;0.40;;;22.80;58.30;;;;;;4942690;28;45062;-82
2023/09/19 05:37:57;;;;;;;1.02;0.50;;;22.80;58.30;;;;;;4962944;28;45428;-83
2023/09/19 05:40:23;;;;;;;0.50;0.47;;;22.80;58.30;;;;;;4956109;28;47545;-83
2023/09/19 05:42:50;;;;;;;0.50;0.50;;;22.80;58.30;;;;;;4972105;28;45289;-83
2023/09/19 05:45:22;;;;;;;0.68;0.45;;;22.80;58.30;;;;;;4963990;28;45593;-83
2023/09/19 05:47:51;;;;;;;0.38;0.38;;;22.80;58.30;;;;;;4954632;28;45490;-83
2023/09/19 05:50:18;;;;;;;0.55;0.40;;;22.80;58.30;;;;;;4937817;28;47191;-83
2023/09/19 05:52:47;;;;;;;1.25;0.50;;;22.80;58.30;;;;;;4940647;28;45432;-83
2023/09/19 05:55:13;;;;;;;1.85;0.47;;;22.80;58.30;;;;;;4929020;28;44862;-82
2023/09/19 05:57:39;;;;;;;2.70;0.55;;;22.80;58.30;;;;;;4962475;28;45083;-84
2023/09/19 06:00:10;;;;;;;0.50;0.43;;;22.80;58.30;;;;;;4940929;28;46386;-81
2023/09/19 06:02:37;;;;;;;1.63;0.60;;;22.80;58.40;;;;;;4948935;28;45353;-83
2023/09/19 06:05:06;;;;;;;0.95;0.50;;;22.80;58.30;;;;;;4959249;28;45397;-82
2023/09/19 06:07:36;;;;;;;0.57;0.47;;;22.80;58.30;;;;;;4934423;28;45002;-83
2023/09/19 06:10:09;;;;;;;0.45;0.45;;;22.80;58.30;;;;;;4972643;28;45824;-83
2023/09/19 06:12:45;;;;;;;0.85;0.32;;;22.80;58.30;;;;;;4960781;28;44634;-83
2023/09/19 06:15:15;;;;;;;0.77;0.50;;;22.80;58.30;;;;;;4951352;28;45156;-83
2023/09/19 06:17:48;;;;;;;0.88;0.60;;;22.80;58.30;;;;;;4964688;28;45444;-84
2023/09/19 06:20:15;;;;;;;1.25;0.50;;;22.80;58.30;;;;;;4953893;28;46340;-84
2023/09/19 06:22:45;;;;;;;1.05;0.60;;;22.80;58.30;;;;;;4972971;28;45556;-83
2023/09/19 06:25:11;;;;;;;2.05;0.98;;;22.80;58.30;;;;;;4957704;28;44830;-82
2023/09/19 06:27:44;;;;;;;0.60;0.60;;;22.80;58.30;;;;;;4937071;28;46244;-83
2023/09/19 06:30:13;;;;;;;1.00;0.60;;;22.80;58.30;;;;;;4971787;28;46341;-83
2023/09/19 06:32:38;;;;;;;1.35;0.50;;;22.80;58.30;;;;;;4952833;28;45949;-84
2023/09/19 06:35:08;;;;;;;2.92;0.50;;;22.80;58.30;;;;;;4940690;28;46027;-83
2023/09/19 06:37:34;;;;;;;1.00;0.43;;;22.80;58.30;;;;;;4947363;28;45235;-83
2023/09/19 06:40:02;;;;;;;0.93;0.32;;;22.80;58.30;;;;;;4957704;28;46481;-83
2023/09/19 06:42:29;;;;;;;0.70;0.50;;;22.80;58.30;;;;;;4972950;28;45533;-83
2023/09/19 06:44:56;;;;;;;0.63;0.40;;;22.80;58.30;;;;;;4969119;28;45542;-83
2023/09/19 06:47:21;;;;;;;0.95;0.40;;;22.80;58.30;;;;;;4931724;28;45510;-82
2023/09/19 06:49:47;;;;;;;1.27;0.50;;;22.80;58.30;;;;;;4955380;28;47131;-84
2023/09/19 06:52:13;;;;;;;0.70;0.40;;;22.80;58.30;;;;;;4968520;28;45600;-83
2023/09/19 06:54:41;;;;;;;0.35;0.35;;;22.80;58.30;;;;;;4956619;28;45030;-83
2023/09/19 06:57:10;;;;;;;0.77;0.38;;;22.80;58.30;;;;;;4961541;28;45153;-83
2023/09/19 06:59:37;;;;;;;1.30;0.50;;;22.80;58.20;;;;;;4962478;28;46281;-83
2023/09/19 07:02:05;;;;;;;0.88;0.45;;;22.80;58.30;;;;;;4937223;28;45252;-83
2023/09/19 07:04:33;;;;;;;1.67;0.50;;;22.80;58.30;;;;;;4982334;28;45031;-83
2023/09/19 07:06:58;;;;;;;0.43;0.40;;;22.80;58.30;;;;;;4977364;28;45119;-83
2023/09/19 07:09:27;;;;;;;0.98;0.30;;;22.80;58.30;;;;;;4976313;28;45407;-84
2023/09/19 07:11:53;;;;;;;0.65;0.50;;;22.80;58.20;;;;;;4961252;28;45238;-83
2023/09/19 07:14:19;;;;;;;2.35;0.47;;;22.80;58.30;;;;;;4963786;28;45671;-83
2023/09/19 07:16:45;;;;;;;1.08;0.50;;;22.80;58.30;;;;;;4967995;28;45235;-84
2023/09/19 07:19:11;;;;;;;0.43;0.40;;;22.80;58.20;;;;;;4961287;28;46119;-83
2023/09/19 07:21:38;;;;;;;1.15;0.38;;;22.80;58.30;;;;;;4994919;28;46626;-83
2023/09/19 07:24:05;;;;;;;0.63;0.50;;;22.80;58.30;;;;;;4979126;28;45294;-83
2023/09/19 07:26:31;;;;;;;0.52;0.30;;;22.80;58.30;;;;;;4979748;28;45502;-83
2023/09/19 07:28:57;;;;;;;1.80;0.50;;;22.80;58.20;;;;;;4979706;28;45533;-83
2023/09/19 07:31:25;;;;;;;0.60;0.47;;;22.80;58.20;;;;;;4932232;28;45410;-84
2023/09/19 07:33:50;;;;;;;0.60;0.50;;;22.80;58.20;;;;;;4973790;28;45136;-83
2023/09/19 07:36:16;;;;;;;1.25;0.35;;;22.80;58.30;;;;;;4937726;28;45490;-84
2023/09/19 07:38:42;;;;;;;0.60;0.40;;;22.80;58.20;;;;;;4959996;28;45864;-83
2023/09/19 07:41:11;;;;;;;0.38;0.30;;;22.80;58.80;;;;;;4974517;28;45430;-86
2023/09/19 07:43:40;;;;;;;0.98;0.32;;;22.80;58.20;;;;;;4929105;28;45420;-84
2023/09/19 07:46:09;;;;;;;0.95;0.50;;;22.80;58.20;;;;;;4945814;28;45510;-84
2023/09/19 07:48:38;;;;;;;0.75;0.50;;;22.80;58.20;;;;;;4960982;28;46646;-84
2023/09/19 07:51:07;;;;;;;0.47;0.40;;;22.80;58.20;;;;;;4941058;28;45711;-83
2023/09/19 07:53:37;;;;;;;0.93;0.55;;;22.80;58.20;;;;;;4946198;28;46098;-83
2023/09/19 07:56:06;;;;;;;2.03;0.47;;;22.80;58.20;;;;;;4973840;28;45515;-84
2023/09/19 07:58:33;;;;;;;1.00;0.70;;;22.80;58.20;;;;;;4947044;28;45440;-84
2023/09/19 08:01:13;;;;;;;0.32;0.32;;;22.70;58.10;;;;;;4954392;28;45466;-83
2023/09/19 08:03:43;;;;;;;1.23;0.60;;;22.80;58.10;;;;;;4944509;28;45826;-83
2023/09/19 08:06:09;;;;;;;1.60;0.60;;;22.80;58.10;;;;;;4972842;28;45743;-83
2023/09/19 08:08:37;;;;;;;1.45;0.50;;;22.80;58.20;;;;;;4948150;28;46274;-84
2023/09/19 08:11:11;;;;;;;0.77;0.50;;;22.70;58.10;;;;;;4936815;28;45453;-83
2023/09/19 08:13:37;;;;;;;1.08;0.65;;;22.80;58.10;;;;;;4961984;28;45269;-84
2023/09/19 08:16:04;;;;;;;1.65;0.47;;;22.80;58.10;;;;;;4950749;28;45263;-83
2023/09/19 08:18:30;;;;;;;1.00;0.65;;;22.80;58.10;;;;;;4964695;28;47099;-84
2023/09/19 08:20:58;;;;;;;0.65;0.43;;;22.80;58.10;;;;;;4967550;28;46571;-83
2023/09/19 08:23:25;;;;;;;1.00;0.50;;;22.80;58.10;;;;;;4977928;28;45437;-83
2023/09/19 08:25:51;;;;;;;1.45;0.60;;;22.80;58.10;;;;;;4951506;28;45781;-83
2023/09/19 08:28:24;;;;;;;1.67;0.63;;;22.80;58.10;;;;;;4968107;28;46133;-83
2023/09/19 08:30:50;;;;;;;;;;;22.80;58.00;;;;;;4950630;28;45190;-84
2023/09/19 08:33:16;;;;;;;1.10;0.40;;;22.70;57.90;;;;;;4943808;28;45436;-83
2023/09/19 08:35:42;;;;;;;0.90;0.60;;;22.70;58.00;;;;;;4970563;28;45458;-84
2023/09/19 08:38:11;;;;;;;1.05;0.55;;;22.80;58.10;;;;;;4925945;28;45911;-84
2023/09/19 08:40:39;;;;;;;0.90;0.60;;;22.80;58.00;;;;;;4969726;28;44616;-83
2023/09/19 08:43:06;;;;;;;2.28;0.70;;;22.80;58.00;;;;;;4961084;28;45365;-83
2023/09/19 08:45:33;;;;;;;1.05;0.57;;;22.80;58.00;;;;;;4935493;28;45597;-83
2023/09/19 08:48:25;;;;;;;1.02;0.57;;;22.80;58.00;;;;;;4975509;28;46931;-83
2023/09/19 08:50:59;;;;;;;0.75;0.57;;;22.80;57.90;;;;;;4939353;28;45418;-84
2023/09/19 08:53:53;;;;;;;1.05;0.45;;;22.80;57.90;;;;;;4975450;28;45486;-84
2023/09/19 08:56:19;;;;;;;0.82;0.55;;;22.80;57.90;;;;;;4958324;28;45470;-84
2023/09/19 08:58:53;;;;;;;0.73;0.60;;;22.80;58.00;;;;;;4952511;28;46144;-83
2023/09/19 09:01:24;;;;;;;;;;;22.80;57.90;;;;;;4947864;28;45359;-83
2023/09/19 09:03:53;;;;;;;1.10;0.55;;;22.70;57.90;;;;;;4971748;28;46276;-84
2023/09/19 09:06:20;;;;;;;0.60;0.50;;;22.70;58.00;;;;;;4958448;28;45229;-84
2023/09/19 09:08:46;;;;;;;0.85;0.70;;;22.80;57.90;;;;;;4946645;28;46073;-84
2023/09/19 09:11:11;;;;;;;1.23;0.65;;;22.80;57.90;;;;;;4951359;28;44921;-83
2023/09/19 09:13:37;;;;;;;1.25;0.60;;;22.80;57.90;;;;;;4964282;28;44944;-84
2023/09/19 09:16:04;;;;;;;0.57;0.38;;;22.80;57.90;;;;;;4967565;28;45312;-84
2023/09/19 09:18:30;;;;;;;1.75;0.65;;;22.80;57.90;;;;;;4974496;28;45669;-83
2023/09/19 09:20:56;;;;;;;1.42;0.80;;;22.80;57.90;;;;;;4953506;28;45146;-83
2023/09/19 09:23:22;;;;;;;0.73;0.60;;;22.80;57.90;;;;;;4974252;28;45148;-84
2023/09/19 09:26:02;;;;;;;1.23;0.70;;;22.80;57.90;;;;;;4955032;28;45548;-84
2023/09/19 09:28:28;;;;;;;0.50;0.40;;;22.80;57.80;;;;;;4947310;28;46453;-84
2023/09/19 09:30:54;;;;;;;1.45;0.57;;;22.80;57.90;;;;;;4927434;28;45025;-83
2023/09/19 09:33:21;;;;;;;0.52;0.38;;;22.80;57.90;;;;;;4975297;28;44957;-84
2023/09/19 09:36:00;;;;;;;0.43;0.43;;;22.80;57.90;;;;;;4940491;28;45442;-84
2023/09/19 09:38:27;;;;;;;1.10;0.60;;;22.80;57.80;;;;;;4964792;28;47449;-84
2023/09/19 09:40:59;;;;;;;1.13;0.77;;;22.80;57.80;;;;;;4938783;28;45601;-83
2023/09/19 09:43:29;;;;;;;0.50;0.47;;;22.80;57.80;;;;;;4938567;28;45467;-84
2023/09/19 09:49:11;;;;;;;1.13;0.60;;;22.80;57.70;;;;;;4957907;28;45526;-83
2023/09/19 09:51:34;;;;;;;1.27;0.47;;;22.80;57.80;;;;;;4958697;28;45242;-83
2023/09/19 09:54:13;;;;;;;2.00;0.80;;;22.80;57.80;;;;;;4976456;28;45279;-83
2023/09/19 09:56:54;;;;;;;0.98;0.43;;;22.80;57.70;;;;;;4942230;28;45198;-83
2023/09/19 09:59:52;;;;;;;1.13;0.65;;;22.80;57.70;;;;;;4936009;28;46475;-85
2023/09/19 10:02:40;;;;;;;1.10;0.60;;;22.80;57.70;;;;;;4963947;28;45422;-84
2023/09/19 10:07:53;;;;;;;0.57;0.55;;;22.80;57.70;;;;;;4958125;28;44982;-82
2023/09/19 10:13:36;;;;;;;1.20;0.55;;;22.80;57.70;;;;;;4979015;28;44716;-83
2023/09/19 10:16:07;;;;;;;0.70;0.55;;;22.80;57.80;;;;;;4929045;28;44667;-83
2023/09/19 10:18:32;;;;;;;0.98;0.70;;;22.80;57.80;;;;;;4947695;28;45258;-83
2023/09/19 10:20:59;;;;;;;0.73;0.60;;;22.80;57.80;;;;;;4924087;28;45248;-83
2023/09/19 10:23:27;;;;;;;1.05;0.52;;;22.80;57.70;;;;;;4955594;28;45403;-83
2023/09/19 10:25:52;;;;;;;0.68;0.65;;;22.80;57.70;;;;;;4940469;28;45162;-83
2023/09/19 10:28:21;;;;;;;1.35;0.65;;;22.80;57.70;;;;;;4945214;28;44916;-83
2023/09/19 10:30:57;;;;;;;1.42;0.57;;;22.80;57.70;;;;;;4935300;28;45897;-82
2023/09/19 10:33:29;;;;;;;1.00;0.70;;;22.80;58.30;;;;;;4955449;28;45716;-84
2023/09/19 10:35:55;;;;;;;0.98;0.65;;;22.80;57.70;;;;;;4979385;28;45438;-83
2023/09/19 10:38:25;;;;;;;0.75;0.57;;;22.80;57.70;;;;;;4947447;28;45405;-83
2023/09/19 10:40:52;;;;;;;1.25;0.65;;;22.80;57.70;;;;;;4939375;28;46522;-82
2023/09/19 10:43:19;;;;;;;0.52;0.50;;;22.80;57.70;;;;;;4947201;28;46063;-83
2023/09/19 10:45:49;;;;;;;1.30;0.65;;;22.80;57.70;;;;;;4950096;28;47688;-84
2023/09/19 10:48:25;;;;;;;1.88;0.68;;;22.80;57.70;;;;;;4960317;28;45207;-84
2023/09/19 10:51:14;;;;;;;1.02;0.65;;;22.80;57.60;;;;;;4978862;28;46539;-81
2023/09/19 10:54:01;;;;;;;1.80;0.90;;;22.80;57.50;;;;;;4976942;28;45640;-84
2023/09/19 10:56:32;;;;;;;0.88;0.70;;;22.80;57.50;;;;;;4979282;28;45334;-84
2023/09/19 10:59:09;;;;;;;1.20;0.80;;;22.80;57.70;;;;;;4945329;28;46248;-83
2023/09/19 11:02:15;;;;;;;1.10;0.80;;;22.80;57.60;;;;;;4950416;28;46106;-82
2023/09/19 11:04:42;;;;;;;0.60;0.60;;;22.80;57.50;;;;;;4946041;28;45150;-83
2023/09/19 11:07:12;;;;;;;1.23;0.80;;;22.80;57.60;;;;;;4936734;28;45674;-84
2023/09/19 11:09:48;;;;;;;1.15;0.50;;;22.80;57.60;;;;;;4986129;28;45394;-83
2023/09/19 11:12:29;;;;;;;1.38;0.88;;;22.80;57.50;;;;;;4974558;28;46313;-83
2023/09/19 11:14:55;;;;;;;1.00;0.80;;;22.80;57.30;;;;;;4965668;28;45436;-84
2023/09/19 11:17:21;;;;;;;1.63;0.73;;;22.80;57.60;;;;;;4936144;28;44747;-85
2023/09/19 11:22:53;;;;;;;1.00;0.70;;;22.80;57.30;;;;;;4982765;28;47049;-84
2023/09/19 11:25:31;;;;;;;1.95;1.00;;;22.80;57.50;;;;;;4993076;28;45304;-83
2023/09/19 11:28:21;;;;;;;0.98;0.40;;;22.80;57.50;;;;;;4981583;28;45377;-84
2023/09/19 11:30:52;;;;;;;1.05;0.60;;;22.80;57.30;;;;;;4990830;28;45165;-83
2023/09/19 11:33:31;;;;;;;1.65;0.90;;;22.80;57.50;;;;;;4964938;28;47207;-83
2023/09/19 11:36:05;;;;;;;2.60;0.80;;;22.80;57.50;;;;;;4981799;28;45548;-84
2023/09/19 11:39:08;;;;;;;1.98;0.88;;;22.80;57.30;;;;;;4964743;28;45187;-84
2023/09/19 11:41:37;;;;;;;1.08;0.63;;;22.80;57.30;;;;;;4960415;28;44900;-84
2023/09/19 11:44:04;;;;;;;0.80;0.65;;;22.80;57.40;;;;;;4947682;28;46290;-84
2023/09/19 11:46:31;;;;;;;2.63;0.80;;;22.80;57.40;;;;;;4971304;28;45277;-84
2023/09/19 11:49:15;;;;;;;2.30;0.77;;;22.80;57.50;;;;;;4975814;28;45281;-83
2023/09/19 11:51:44;;;;;;;0.85;0.52;;;22.80;57.40;;;;;;4966235;28;46064;-84
2023/09/19 11:54:17;;;;;;;1.00;0.80;;;22.80;57.40;;;;;;4961478;28;46548;-83
2023/09/19 11:56:44;;;;;;;0.93;0.70;;;22.80;57.40;;;;;;4976277;28;45789;-84
2023/09/19 11:59:11;;;;;;;2.33;0.80;;;22.80;57.40;;;;;;4961163;28;45369;-84
2023/09/19 12:01:37;;;;;;;1.60;0.70;;;22.80;57.40;;;;;;4936482;28;45264;-84
2023/09/19 12:04:04;;;;;;;0.95;0.45;;;22.80;57.40;;;;;;4972792;28;46506;-83
2023/09/19 12:06:32;;;;;;;0.90;0.60;;;22.80;57.40;;;;;;4940528;28;45374;-84
2023/09/19 12:08:59;;;;;;;1.08;0.70;;;22.80;57.40;;;;;;4942482;28;44874;-83
2023/09/19 12:11:28;;;;;;;1.13;0.75;;;22.80;57.40;;;;;;4949126;28;45435;-83
2023/09/19 12:13:57;;;;;;;0.68;0.65;;;22.80;57.30;;;;;;4944074;28;45631;-83
2023/09/19 12:16:24;;;;;;;1.00;0.70;;;22.80;57.40;;;;;;4962829;28;45195;-83
2023/09/19 12:18:50;;;;;;;1.48;0.73;;;22.80;57.30;;;;;;4965953;28;45262;-84
2023/09/19 12:21:27;;;;;;;1.25;0.75;;;22.80;57.30;;;;;;4962764;28;45418;-83
2023/09/19 12:24:13;;;;;;;1.77;0.60;;;22.90;57.30;;;;;;4958299;28;46808;-83
2023/09/19 12:26:47;;;;;;;1.25;0.40;;;22.80;57.10;;;;;;4940745;28;45309;-83
2023/09/19 12:29:20;;;;;;;1.85;0.60;;;22.90;57.20;;;;;;4978573;28;45355;-83
2023/09/19 12:31:58;;;;;;;0.82;0.60;;;22.80;57.20;;;;;;4984020;28;45409;-84
2023/09/19 12:34:28;;;;;;;2.03;0.60;;;22.80;57.10;;;;;;4964510;28;46458;-83
2023/09/19 12:37:11;;;;;;;0.50;0.50;;;22.80;57.20;;;;;;4929297;28;45978;-82
2023/09/19 12:39:48;;;;;;;1.95;0.65;;;22.80;57.00;;;;;;4976486;28;45054;-81
2023/09/19 12:42:16;;;;;;;0.90;0.60;;;22.90;57.20;;;;;;4956845;28;45986;-84
2023/09/19 12:45:09;;;;;;;0.70;0.60;;;22.80;57.10;;;;;;4942444;28;46470;-84
2023/09/19 12:47:34;;;;;;;1.00;0.80;;;22.80;56.90;;;;;;4969817;28;45243;-83
2023/09/19 12:50:16;;;;;;;0.82;0.60;;;22.80;57.10;;;;;;4940719;28;45560;-81
2023/09/19 12:52:51;;;;;;;1.33;0.60;;;22.90;57.00;;;;;;4961453;28;44731;-83
2023/09/19 12:55:24;;;;;;;1.75;0.52;;;22.80;57.10;;;;;;4967708;28;46007;-83
2023/09/19 12:58:17;;;;;;;0.87;0.57;;;22.90;57.10;;;;;;4960134;28;45327;-84
2023/09/19 13:00:44;;;;;;;1.05;0.40;;;22.80;56.90;;;;;;4931503;28;45161;-84
2023/09/19 13:03:20;;;;;;;1.58;0.63;;;22.80;57.10;;;;;;4944132;28;45588;-84
2023/09/19 13:05:53;;;;;;;0.90;0.60;;;22.90;57.00;;;;;;4954225;28;46355;-83
2023/09/19 13:08:38;;;;;;;1.05;0.60;;;22.90;57.00;;;;;;4955609;28;45786;-84
2023/09/19 13:11:14;;;;;;;0.60;0.47;;;22.90;57.00;;;;;;4946675;28;45313;-84
2023/09/19 13:13:48;;;;;;;0.50;0.50;;;22.90;57.00;;;;;;4941207;28;45353;-81
2023/09/19 13:16:14;;;;;;;0.85;0.40;;;22.90;56.90;;;;;;4948488;28;46012;-82
2023/09/19 13:18:52;;;;;;;2.45;0.60;;;22.80;57.00;;;;;;4943701;28;45245;-83
2023/09/19 13:21:27;;;;;;;1.10;0.70;;;22.90;56.90;;;;;;4944561;28;45335;-81
2023/09/19 13:23:56;;;;;;;2.80;0.73;;;22.90;57.10;;;;;;4957429;28;44738;-84
2023/09/19 13:26:22;;;;;;;0.77;0.50;;;22.90;57.00;;;;;;4983599;28;46324;-84
2023/09/19 13:28:49;;;;;;;0.65;0.43;;;22.90;57.00;;;;;;4987317;28;45285;-83
2023/09/19 13:31:15;;;;;;;1.77;0.50;;;22.90;57.00;;;;;;4950844;28;45437;-83
2023/09/19 13:33:45;;;;;;;1.75;0.70;;;22.90;57.00;;;;;;4946820;28;45375;-82
2023/09/19 13:36:12;;;;;;;1.23;0.77;;;22.90;56.90;;;;;;4940601;28;46981;-83
2023/09/19 13:38:39;;;;;;;0.47;0.45;;;22.90;57.00;;;;;;4948083;28;45637;-83
2023/09/19 13:41:04;;;;;;;1.60;0.77;;;22.90;57.00;;;;;;4944753;28;45328;-83
2023/09/19 13:43:31;;;;;;;0.50;0.50;;;22.90;57.00;;;;;;4959884;28;44899;-83
2023/09/19 13:45:57;;;;;;;0.98;0.40;;;22.90;56.90;;;;;;4965772;28;46962;-84
2023/09/19 13:48:24;;;;;;;1.40;0.73;;;22.90;57.00;;;;;;4957521;28;45400;-83
2023/09/19 13:50:50;;;;;;;1.83;0.70;;;22.90;57.00;;;;;;4968650;28;45275;-84
2023/09/19 13:53:16;;;;;;;2.17;0.70;;;22.90;57.00;;;;;;4958773;28;45522;-83
2023/09/19 13:55:42;;;;;;;1.17;0.70;;;22.90;56.90;;;;;;4942432;28;46471;-83
2023/09/19 13:58:10;;;;;;;1.55;0.85;;;22.90;56.90;;;;;;4983621;28;45238;-82
2023/09/19 14:00:36;;;;;;;1.63;0.73;;;22.90;56.90;;;;;;4989210;28;44719;-83
2023/09/19 14:03:04;;;;;;;2.08;0.80;;;22.90;56.90;;;;;;4977093;28;45677;-83
2023/09/19 14:05:30;;;;;;;1.55;0.68;;;22.90;57.00;;;;;;4953424;28;45648;-83
2023/09/19 14:07:57;;;;;;;1.50;0.75;;;22.90;56.90;;;;;;4977808;28;45165;-83
2023/09/19 14:10:23;;;;;;;1.67;0.50;;;22.90;56.90;;;;;;4958867;28;45116;-83
2023/09/19 14:12:50;;;;;;;0.80;0.70;;;22.90;56.90;;;;;;4962239;28;46201;-83
2023/09/19 14:15:16;;;;;;;1.10;0.60;;;23.00;56.90;;;;;;4961204;28;47366;-84
2023/09/19 14:17:44;;;;;;;1.33;0.73;;;22.90;56.90;;;;;;4977477;28;45310;-83
2023/09/19 14:20:10;;;;;;;2.88;0.80;;;23.00;56.90;;;;;;4953418;28;45329;-84
2023/09/19 14:22:36;;;;;;;0.63;0.43;;;23.00;56.80;;;;;;4961679;28;44702;-83
2023/09/19 14:25:04;;;;;;;2.03;0.70;;;22.90;56.80;;;;;;4985447;28;46179;-81
2023/09/19 14:27:30;;;;;;;3.05;0.68;;;23.00;56.80;;;;;;4930043;28;45560;-83
2023/09/19 14:29:59;;;;;;;1.33;0.50;;;23.00;56.80;;;;;;4952785;28;45296;-83
2023/09/19 14:32:26;;;;;;;1.08;0.57;;;23.00;56.90;;;;;;4953633;28;45286;-83
2023/09/19 14:34:52;;;;;;;2.40;0.50;;;23.00;56.90;;;;;;4985008;28;46834;-83
2023/09/19 14:37:21;;;;;;;1.27;0.60;;;23.00;56.90;;;;;;4965795;28;45198;-82
2023/09/19 14:39:46;;;;;;;2.10;0.82;;;23.00;56.90;;;;;;4990641;28;45267;-83
2023/09/19 14:42:14;;;;;;;0.88;0.63;;;23.00;56.80;;;;;;4958152;28;45744;-82
2023/09/19 14:44:40;;;;;;;2.13;0.70;;;23.00;56.90;;;;;;4965144;28;46088;-83
2023/09/19 14:47:07;;;;;;;1.75;0.70;;;23.00;56.80;;;;;;4943259;28;46196;-84
2023/09/19 14:49:39;;;;;;;0.85;0.60;;;23.00;56.80;;;;;;4959180;28;45116;-83
2023/09/19 14:52:08;;;;;;;1.13;0.68;;;23.00;56.80;;;;;;4940885;28;45040;-84
2023/09/19 14:54:35;;;;;;;0.40;0.40;;;23.00;56.80;;;;;;4978477;28;46190;-84
2023/09/19 14:57:04;;;;;;;0.98;0.60;;;23.00;56.80;;;;;;4960438;28;45554;-83
2023/09/19 14:59:34;;;;;;;0.63;0.43;;;23.00;56.80;;;;;;4973055;28;45608;-84
2023/09/19 15:02:00;;;;;;;1.15;0.63;;;23.00;56.80;;;;;;4962992;28;45445;-83
2023/09/19 15:04:27;;;;;;;1.15;0.70;;;23.00;56.80;;;;;;4989175;28;47441;-84
2023/09/19 15:06:54;;;;;;;0.90;0.60;;;23.00;56.80;;;;;;4942501;28;45627;-83
2023/09/19 15:09:26;;;;;;;1.40;0.57;;;23.00;56.90;;;;;;4958728;28;45557;-83
2023/09/19 15:11:53;;;;;;;2.08;0.70;;;23.00;56.80;;;;;;4954338;28;45756;-83
2023/09/19 15:14:19;;;;;;;1.98;0.70;;;23.00;56.80;;;;;;4988422;28;46502;-83
2023/09/19 15:16:45;;;;;;;0.90;0.60;;;23.00;56.80;;;;;;4950212;28;44813;-83
2023/09/19 15:19:11;;;;;;;1.02;0.60;;;23.00;56.80;;;;;;4976445;28;45794;-83
2023/09/19 15:21:37;;;;;;;1.50;0.70;;;23.00;56.80;;;;;;4954928;28;45411;-82
2023/09/19 15:24:05;;;;;;;1.70;0.85;;;23.00;56.80;;;;;;4975164;28;45300;-83
2023/09/19 15:26:31;;;;;;;1.13;0.75;;;23.00;56.80;;;;;;4971398;28;44901;-84
2023/09/19 15:28:57;;;;;;;0.90;0.70;;;23.00;56.80;;;;;;4976420;28;44739;-84
2023/09/19 15:31:23;;;;;;;3.60;0.52;;;23.00;57.40;;;;;;4934015;28;45181;-83
2023/09/19 15:33:48;;;;;;;0.70;0.52;;;23.00;56.80;;;;;;4974717;28;46354;-84
2023/09/19 15:36:14;;;;;;;0.68;0.65;;;23.00;56.80;;;;;;4924821;28;45517;-83
2023/09/19 15:39:11;;;;;;;0.95;0.60;;;23.00;56.80;;;;;;4938884;28;45231;-84
2023/09/19 15:41:41;;;;;;;1.70;0.50;;;23.00;56.70;;;;;;4977093;28;45219;-83
2023/09/19 15:44:15;;;;;;;0.82;0.52;;;23.00;56.80;;;;;;4975433;28;47404;-83
2023/09/19 15:46:41;;;;;;;1.08;0.63;;;23.00;56.70;;;;;;4952797;28;44915;-83
2023/09/19 15:49:07;;;;;;;1.45;0.63;;;23.00;56.80;;;;;;4978669;28;45591;-83
2023/09/19 15:51:35;;;;;;;0.55;0.50;;;23.00;56.80;;;;;;4937823;28;45822;-82
2023/09/19 15:54:02;;;;;;;0.85;0.60;;;23.00;56.80;;;;;;4993976;28;46219;-83
2023/09/19 15:56:28;;;;;;;1.25;0.80;;;23.00;56.80;;;;;;4930062;28;45065;-84
2023/09/19 15:58:58;;;;;;;1.95;0.73;;;23.00;56.80;;;;;;4942680;28;44775;-82
2023/09/19 16:01:25;;;;;;;1.40;0.63;;;23.00;56.80;;;;;;4962114;28;45773;-85
2023/09/19 16:03:57;;;;;;;0.70;0.60;;;23.00;56.80;;;;;;4968956;28;47341;-83
2023/09/19 16:06:30;;;;;;;0.90;0.50;;;23.00;56.80;;;;;;4950819;28;45760;-83
2023/09/19 16:08:57;;;;;;;2.15;0.60;;;23.00;56.70;;;;;;4939369;28;45641;-83
2023/09/19 16:11:23;;;;;;;1.10;0.63;;;23.00;56.80;;;;;;4965475;28;45605;-82